sensor_id;sensor_type;location;lat;lon;timestamp;P1;durP1;ratioP1;P2;durP2;ratioP2
27113;SDS011;14648;49.730;8.614;2022-08-19T00:01:31;20.77;;;15.70;;
27113;SDS011;14648;49.730;8.614;2022-08-19T00:04:00;19.60;;;15.20;;
27113;SDS011;14648;49.730;8.614;2022-08-19T00:06:30;17.23;;;15.20;;
27113;SDS011;14648;49.730;8.614;2022-08-19T00:08:57;17.60;;;15.67;;
27113;SDS011;14648;49.730;8.614;2022-08-19T00:11:25;19.20;;;15.50;;
27113;SDS011;14648;49.730;8.614;2022-08-19T00:13:53;22.70;;;16.47;;
27113;SDS011;14648;49.730;8.614;2022-08-19T00:16:20;16.80;;;14.83;;
27113;SDS011;14648;49.730;8.614;2022-08-19T00:18:47;21.13;;;16.40;;
27113;SDS011;14648;49.730;8.614;2022-08-19T00:21:13;19.93;;;15.63;;
27113;SDS011;14648;49.730;8.614;2022-08-19T00:23:40;17.97;;;14.80;;
27113;SDS011;14648;49.730;8.614;2022-08-19T00:26:07;22.57;;;15.37;;
27113;SDS011;14648;49.730;8.614;2022-08-19T00:28:34;20.87;;;16.87;;
27113;SDS011;14648;49.730;8.614;2022-08-19T00:31:01;22.63;;;16.67;;
27113;SDS011;14648;49.730;8.614;2022-08-19T00:33:29;18.53;;;15.43;;
27113;SDS011;14648;49.730;8.614;2022-08-19T00:35:59;18.03;;;15.30;;
27113;SDS011;14648;49.730;8.614;2022-08-19T00:38:26;20.23;;;14.57;;
27113;SDS011;14648;49.730;8.614;2022-08-19T00:40:52;21.53;;;16.87;;
27113;SDS011;14648;49.730;8.614;2022-08-19T00:43:20;20.57;;;15.67;;
27113;SDS011;14648;49.730;8.614;2022-08-19T00:45:49;21.33;;;16.53;;
27113;SDS011;14648;49.730;8.614;2022-08-19T00:48:15;21.60;;;17.27;;
27113;SDS011;14648;49.730;8.614;2022-08-19T00:50:43;20.50;;;16.77;;
27113;SDS011;14648;49.730;8.614;2022-08-19T00:53:13;20.43;;;16.30;;
27113;SDS011;14648;49.730;8.614;2022-08-19T00:55:44;24.37;;;16.23;;
27113;SDS011;14648;49.730;8.614;2022-08-19T00:58:14;18.50;;;15.40;;
27113;SDS011;14648;49.730;8.614;2022-08-19T01:00:42;20.73;;;16.23;;
27113;SDS011;14648;49.730;8.614;2022-08-19T01:03:11;24.90;;;16.93;;
27113;SDS011;14648;49.730;8.614;2022-08-19T01:05:41;19.57;;;15.00;;
27113;SDS011;14648;49.730;8.614;2022-08-19T01:08:08;21.10;;;15.70;;
27113;SDS011;14648;49.730;8.614;2022-08-19T01:10:37;17.60;;;15.20;;
27113;SDS011;14648;49.730;8.614;2022-08-19T01:13:20;18.70;;;15.43;;
27113;SDS011;14648;49.730;8.614;2022-08-19T01:15:50;19.93;;;16.33;;
27113;SDS011;14648;49.730;8.614;2022-08-19T01:18:21;24.20;;;15.70;;
27113;SDS011;14648;49.730;8.614;2022-08-19T01:20:47;21.37;;;16.13;;
27113;SDS011;14648;49.730;8.614;2022-08-19T01:23:14;23.87;;;16.47;;
27113;SDS011;14648;49.730;8.614;2022-08-19T01:25:43;17.53;;;14.60;;
27113;SDS011;14648;49.730;8.614;2022-08-19T01:28:25;22.83;;;17.00;;
27113;SDS011;14648;49.730;8.614;2022-08-19T01:30:53;21.20;;;16.30;;
27113;SDS011;14648;49.730;8.614;2022-08-19T01:33:20;20.10;;;15.37;;
27113;SDS011;14648;49.730;8.614;2022-08-19T01:35:46;20.50;;;16.77;;
27113;SDS011;14648;49.730;8.614;2022-08-19T01:38:22;20.60;;;15.87;;
27113;SDS011;14648;49.730;8.614;2022-08-19T01:40:51;20.67;;;15.33;;
27113;SDS011;14648;49.730;8.614;2022-08-19T01:43:17;19.70;;;15.03;;
27113;SDS011;14648;49.730;8.614;2022-08-19T01:45:44;18.43;;;15.57;;
27113;SDS011;14648;49.730;8.614;2022-08-19T01:48:11;20.83;;;16.17;;
27113;SDS011;14648;49.730;8.614;2022-08-19T01:50:37;19.43;;;15.57;;
27113;SDS011;14648;49.730;8.614;2022-08-19T01:53:04;23.30;;;17.80;;
27113;SDS011;14648;49.730;8.614;2022-08-19T01:55:35;21.80;;;15.90;;
27113;SDS011;14648;49.730;8.614;2022-08-19T01:58:02;24.50;;;16.73;;
27113;SDS011;14648;49.730;8.614;2022-08-19T02:00:31;24.87;;;16.00;;
27113;SDS011;14648;49.730;8.614;2022-08-19T02:02:57;20.93;;;17.07;;
27113;SDS011;14648;49.730;8.614;2022-08-19T02:05:24;21.57;;;15.00;;
27113;SDS011;14648;49.730;8.614;2022-08-19T02:07:50;20.43;;;15.40;;
27113;SDS011;14648;49.730;8.614;2022-08-19T02:10:17;24.50;;;15.47;;
27113;SDS011;14648;49.730;8.614;2022-08-19T02:12:46;21.50;;;14.57;;
27113;SDS011;14648;49.730;8.614;2022-08-19T02:15:14;18.47;;;15.00;;
27113;SDS011;14648;49.730;8.614;2022-08-19T02:17:40;19.77;;;17.30;;
27113;SDS011;14648;49.730;8.614;2022-08-19T02:20:07;20.37;;;15.00;;
27113;SDS011;14648;49.730;8.614;2022-08-19T02:22:34;22.10;;;15.40;;
27113;SDS011;14648;49.730;8.614;2022-08-19T02:25:00;18.70;;;15.10;;
27113;SDS011;14648;49.730;8.614;2022-08-19T02:27:27;17.03;;;14.70;;
27113;SDS011;14648;49.730;8.614;2022-08-19T02:29:52;20.47;;;16.43;;
27113;SDS011;14648;49.730;8.614;2022-08-19T02:32:18;22.10;;;16.60;;
27113;SDS011;14648;49.730;8.614;2022-08-19T02:34:45;21.70;;;15.80;;
27113;SDS011;14648;49.730;8.614;2022-08-19T02:37:11;19.90;;;15.03;;
27113;SDS011;14648;49.730;8.614;2022-08-19T02:39:56;24.87;;;16.63;;
27113;SDS011;14648;49.730;8.614;2022-08-19T02:42:22;20.87;;;16.03;;
27113;SDS011;14648;49.730;8.614;2022-08-19T02:44:48;21.10;;;16.53;;
27113;SDS011;14648;49.730;8.614;2022-08-19T02:47:14;20.83;;;15.20;;
27113;SDS011;14648;49.730;8.614;2022-08-19T02:49:40;24.37;;;15.50;;
27113;SDS011;14648;49.730;8.614;2022-08-19T02:52:07;22.17;;;17.00;;
27113;SDS011;14648;49.730;8.614;2022-08-19T02:54:33;20.90;;;16.77;;
27113;SDS011;14648;49.730;8.614;2022-08-19T02:56:59;18.50;;;15.77;;
27113;SDS011;14648;49.730;8.614;2022-08-19T02:59:24;20.73;;;16.10;;
27113;SDS011;14648;49.730;8.614;2022-08-19T03:01:51;22.53;;;17.20;;
27113;SDS011;14648;49.730;8.614;2022-08-19T03:04:17;19.27;;;14.53;;
27113;SDS011;14648;49.730;8.614;2022-08-19T03:06:45;20.20;;;15.50;;
27113;SDS011;14648;49.730;8.614;2022-08-19T03:09:12;19.83;;;15.33;;
27113;SDS011;14648;49.730;8.614;2022-08-19T03:11:39;18.97;;;14.90;;
27113;SDS011;14648;49.730;8.614;2022-08-19T03:14:05;21.30;;;14.60;;
27113;SDS011;14648;49.730;8.614;2022-08-19T03:16:34;18.37;;;14.17;;
27113;SDS011;14648;49.730;8.614;2022-08-19T03:19:07;19.10;;;15.13;;
27113;SDS011;14648;49.730;8.614;2022-08-19T03:21:33;16.40;;;13.67;;
27113;SDS011;14648;49.730;8.614;2022-08-19T03:24:01;20.67;;;16.23;;
27113;SDS011;14648;49.730;8.614;2022-08-19T03:26:31;20.00;;;14.77;;
27113;SDS011;14648;49.730;8.614;2022-08-19T03:28:57;17.03;;;13.90;;
27113;SDS011;14648;49.730;8.614;2022-08-19T03:31:27;23.07;;;15.17;;
27113;SDS011;14648;49.730;8.614;2022-08-19T03:33:52;21.87;;;16.33;;
27113;SDS011;14648;49.730;8.614;2022-08-19T03:36:20;19.60;;;15.33;;
27113;SDS011;14648;49.730;8.614;2022-08-19T03:38:50;17.57;;;14.50;;
27113;SDS011;14648;49.730;8.614;2022-08-19T03:41:24;18.00;;;13.57;;
27113;SDS011;14648;49.730;8.614;2022-08-19T03:43:52;23.77;;;13.57;;
27113;SDS011;14648;49.730;8.614;2022-08-19T03:46:21;18.60;;;14.53;;
27113;SDS011;14648;49.730;8.614;2022-08-19T03:48:51;20.70;;;15.20;;
27113;SDS011;14648;49.730;8.614;2022-08-19T03:51:22;20.90;;;14.73;;
27113;SDS011;14648;49.730;8.614;2022-08-19T03:54:00;25.90;;;14.57;;
27113;SDS011;14648;49.730;8.614;2022-08-19T03:56:30;18.27;;;14.60;;
27113;SDS011;14648;49.730;8.614;2022-08-19T03:58:59;19.20;;;14.20;;
27113;SDS011;14648;49.730;8.614;2022-08-19T04:01:26;37.17;;;16.97;;
27113;SDS011;14648;49.730;8.614;2022-08-19T04:03:57;30.73;;;17.10;;
27113;SDS011;14648;49.730;8.614;2022-08-19T04:06:27;22.30;;;15.70;;
27113;SDS011;14648;49.730;8.614;2022-08-19T04:08:56;26.77;;;16.97;;
27113;SDS011;14648;49.730;8.614;2022-08-19T04:11:24;30.73;;;15.13;;
27113;SDS011;14648;49.730;8.614;2022-08-19T04:13:53;25.80;;;15.60;;
27113;SDS011;14648;49.730;8.614;2022-08-19T04:16:21;28.20;;;17.03;;
27113;SDS011;14648;49.730;8.614;2022-08-19T04:18:53;35.77;;;18.20;;
27113;SDS011;14648;49.730;8.614;2022-08-19T04:21:22;28.47;;;18.17;;
27113;SDS011;14648;49.730;8.614;2022-08-19T04:23:50;32.07;;;17.60;;
27113;SDS011;14648;49.730;8.614;2022-08-19T04:26:19;27.07;;;17.20;;
27113;SDS011;14648;49.730;8.614;2022-08-19T04:28:50;45.87;;;20.77;;
27113;SDS011;14648;49.730;8.614;2022-08-19T04:31:19;25.17;;;17.07;;
27113;SDS011;14648;49.730;8.614;2022-08-19T04:33:51;28.10;;;17.10;;
27113;SDS011;14648;49.730;8.614;2022-08-19T04:36:28;25.43;;;17.07;;
27113;SDS011;14648;49.730;8.614;2022-08-19T04:38:59;27.30;;;16.70;;
27113;SDS011;14648;49.730;8.614;2022-08-19T04:41:32;21.37;;;15.00;;
27113;SDS011;14648;49.730;8.614;2022-08-19T04:44:17;26.77;;;17.07;;
27113;SDS011;14648;49.730;8.614;2022-08-19T04:46:44;21.77;;;16.77;;
27113;SDS011;14648;49.730;8.614;2022-08-19T04:49:12;23.90;;;16.87;;
27113;SDS011;14648;49.730;8.614;2022-08-19T04:51:41;23.17;;;16.47;;
27113;SDS011;14648;49.730;8.614;2022-08-19T04:54:09;27.03;;;17.70;;
27113;SDS011;14648;49.730;8.614;2022-08-19T04:56:36;23.40;;;16.77;;
27113;SDS011;14648;49.730;8.614;2022-08-19T04:59:02;22.40;;;15.10;;
27113;SDS011;14648;49.730;8.614;2022-08-19T05:01:29;20.33;;;15.20;;
27113;SDS011;14648;49.730;8.614;2022-08-19T05:03:58;23.33;;;16.17;;
27113;SDS011;14648;49.730;8.614;2022-08-19T05:06:26;25.20;;;15.93;;
27113;SDS011;14648;49.730;8.614;2022-08-19T05:08:53;24.53;;;17.40;;
27113;SDS011;14648;49.730;8.614;2022-08-19T05:11:20;18.90;;;15.30;;
27113;SDS011;14648;49.730;8.614;2022-08-19T05:13:51;26.33;;;15.93;;
27113;SDS011;14648;49.730;8.614;2022-08-19T05:16:18;29.40;;;16.73;;
27113;SDS011;14648;49.730;8.614;2022-08-19T05:18:46;23.23;;;15.40;;
27113;SDS011;14648;49.730;8.614;2022-08-19T05:21:31;25.00;;;15.10;;
27113;SDS011;14648;49.730;8.614;2022-08-19T05:24:17;23.73;;;15.90;;
27113;SDS011;14648;49.730;8.614;2022-08-19T05:26:45;19.20;;;15.63;;
27113;SDS011;14648;49.730;8.614;2022-08-19T05:29:14;23.27;;;16.10;;
27113;SDS011;14648;49.730;8.614;2022-08-19T05:31:43;33.60;;;16.77;;
27113;SDS011;14648;49.730;8.614;2022-08-19T05:34:10;18.33;;;15.47;;
27113;SDS011;14648;49.730;8.614;2022-08-19T05:36:38;20.90;;;16.33;;
27113;SDS011;14648;49.730;8.614;2022-08-19T05:39:09;25.40;;;16.20;;
27113;SDS011;14648;49.730;8.614;2022-08-19T05:41:42;21.13;;;16.73;;
27113;SDS011;14648;49.730;8.614;2022-08-19T05:44:11;21.77;;;15.13;;
27113;SDS011;14648;49.730;8.614;2022-08-19T05:46:37;27.57;;;18.30;;
27113;SDS011;14648;49.730;8.614;2022-08-19T05:49:07;19.57;;;14.90;;
27113;SDS011;14648;49.730;8.614;2022-08-19T05:51:34;24.73;;;16.20;;
27113;SDS011;14648;49.730;8.614;2022-08-19T05:54:02;22.03;;;15.03;;
27113;SDS011;14648;49.730;8.614;2022-08-19T05:56:30;20.83;;;15.43;;
27113;SDS011;14648;49.730;8.614;2022-08-19T05:58:57;19.67;;;15.10;;
27113;SDS011;14648;49.730;8.614;2022-08-19T06:01:24;23.00;;;16.43;;
27113;SDS011;14648;49.730;8.614;2022-08-19T06:03:51;21.90;;;15.47;;
27113;SDS011;14648;49.730;8.614;2022-08-19T06:06:17;21.63;;;16.37;;
27113;SDS011;14648;49.730;8.614;2022-08-19T06:08:43;23.43;;;16.00;;
27113;SDS011;14648;49.730;8.614;2022-08-19T06:13:43;21.50;;;14.90;;
27113;SDS011;14648;49.730;8.614;2022-08-19T06:16:12;22.63;;;14.50;;
27113;SDS011;14648;49.730;8.614;2022-08-19T06:18:44;22.87;;;15.60;;
27113;SDS011;14648;49.730;8.614;2022-08-19T06:21:10;20.03;;;15.47;;
27113;SDS011;14648;49.730;8.614;2022-08-19T06:23:35;22.30;;;16.10;;
27113;SDS011;14648;49.730;8.614;2022-08-19T06:26:01;23.37;;;17.33;;
27113;SDS011;14648;49.730;8.614;2022-08-19T06:28:27;25.23;;;16.47;;
27113;SDS011;14648;49.730;8.614;2022-08-19T06:30:53;22.10;;;16.43;;
27113;SDS011;14648;49.730;8.614;2022-08-19T06:33:18;23.60;;;16.50;;
27113;SDS011;14648;49.730;8.614;2022-08-19T06:35:44;20.00;;;15.70;;
27113;SDS011;14648;49.730;8.614;2022-08-19T06:38:09;20.80;;;16.00;;
27113;SDS011;14648;49.730;8.614;2022-08-19T06:40:36;20.90;;;14.80;;
27113;SDS011;14648;49.730;8.614;2022-08-19T06:43:03;23.23;;;15.70;;
27113;SDS011;14648;49.730;8.614;2022-08-19T06:45:28;17.83;;;14.40;;
27113;SDS011;14648;49.730;8.614;2022-08-19T06:47:55;22.03;;;16.10;;
27113;SDS011;14648;49.730;8.614;2022-08-19T06:50:21;21.67;;;15.30;;
27113;SDS011;14648;49.730;8.614;2022-08-19T06:52:50;21.33;;;15.63;;
27113;SDS011;14648;49.730;8.614;2022-08-19T06:55:16;23.10;;;15.43;;
27113;SDS011;14648;49.730;8.614;2022-08-19T06:57:42;20.77;;;14.40;;
27113;SDS011;14648;49.730;8.614;2022-08-19T07:00:10;18.03;;;15.37;;
27113;SDS011;14648;49.730;8.614;2022-08-19T07:02:38;16.40;;;14.00;;
27113;SDS011;14648;49.730;8.614;2022-08-19T07:05:05;20.70;;;15.23;;
27113;SDS011;14648;49.730;8.614;2022-08-19T07:07:32;19.73;;;13.50;;
27113;SDS011;14648;49.730;8.614;2022-08-19T07:09:57;17.80;;;14.00;;
27113;SDS011;14648;49.730;8.614;2022-08-19T07:12:23;17.37;;;12.87;;
27113;SDS011;14648;49.730;8.614;2022-08-19T07:14:49;18.97;;;13.93;;
27113;SDS011;14648;49.730;8.614;2022-08-19T07:17:15;19.00;;;13.17;;
27113;SDS011;14648;49.730;8.614;2022-08-19T07:19:41;19.27;;;12.90;;
27113;SDS011;14648;49.730;8.614;2022-08-19T07:22:08;19.57;;;13.40;;
27113;SDS011;14648;49.730;8.614;2022-08-19T07:24:35;16.43;;;14.00;;
27113;SDS011;14648;49.730;8.614;2022-08-19T07:27:03;16.93;;;13.40;;
27113;SDS011;14648;49.730;8.614;2022-08-19T07:29:31;15.17;;;13.33;;
27113;SDS011;14648;49.730;8.614;2022-08-19T07:31:59;16.93;;;13.87;;
27113;SDS011;14648;49.730;8.614;2022-08-19T07:34:27;16.93;;;13.70;;
27113;SDS011;14648;49.730;8.614;2022-08-19T07:36:55;17.90;;;11.50;;
27113;SDS011;14648;49.730;8.614;2022-08-19T07:39:23;17.47;;;13.03;;
27113;SDS011;14648;49.730;8.614;2022-08-19T07:41:53;15.80;;;12.53;;
27113;SDS011;14648;49.730;8.614;2022-08-19T07:44:20;12.17;;;10.90;;
27113;SDS011;14648;49.730;8.614;2022-08-19T07:46:49;14.50;;;11.40;;
27113;SDS011;14648;49.730;8.614;2022-08-19T07:49:19;11.70;;;10.47;;
27113;SDS011;14648;49.730;8.614;2022-08-19T07:52:03;13.40;;;10.90;;
27113;SDS011;14648;49.730;8.614;2022-08-19T07:54:32;13.87;;;9.60;;
27113;SDS011;14648;49.730;8.614;2022-08-19T07:57:02;12.40;;;10.33;;
27113;SDS011;14648;49.730;8.614;2022-08-19T07:59:28;11.90;;;10.60;;
27113;SDS011;14648;49.730;8.614;2022-08-19T08:01:56;12.07;;;10.23;;
27113;SDS011;14648;49.730;8.614;2022-08-19T08:04:24;11.50;;;10.00;;
27113;SDS011;14648;49.730;8.614;2022-08-19T08:07:09;15.07;;;11.00;;
27113;SDS011;14648;49.730;8.614;2022-08-19T08:09:53;16.37;;;9.40;;
27113;SDS011;14648;49.730;8.614;2022-08-19T08:12:20;16.67;;;9.90;;
27113;SDS011;14648;49.730;8.614;2022-08-19T08:15:14;10.60;;;8.90;;
27113;SDS011;14648;49.730;8.614;2022-08-19T08:17:43;9.97;;;8.30;;
27113;SDS011;14648;49.730;8.614;2022-08-19T08:20:10;9.70;;;8.70;;
27113;SDS011;14648;49.730;8.614;2022-08-19T08:22:36;11.00;;;8.97;;
27113;SDS011;14648;49.730;8.614;2022-08-19T08:25:26;15.20;;;8.93;;
27113;SDS011;14648;49.730;8.614;2022-08-19T08:27:52;11.40;;;8.33;;
27113;SDS011;14648;49.730;8.614;2022-08-19T08:30:23;10.93;;;8.87;;
27113;SDS011;14648;49.730;8.614;2022-08-19T08:32:51;18.87;;;8.53;;
27113;SDS011;14648;49.730;8.614;2022-08-19T08:35:18;12.07;;;8.87;;
27113;SDS011;14648;49.730;8.614;2022-08-19T08:37:51;16.77;;;9.53;;
27113;SDS011;14648;49.730;8.614;2022-08-19T08:40:22;11.43;;;8.80;;
27113;SDS011;14648;49.730;8.614;2022-08-19T08:43:24;15.53;;;8.83;;
27113;SDS011;14648;49.730;8.614;2022-08-19T08:46:03;10.40;;;8.30;;
27113;SDS011;14648;49.730;8.614;2022-08-19T08:51:32;11.17;;;8.50;;
27113;SDS011;14648;49.730;8.614;2022-08-19T08:54:08;11.37;;;8.13;;
27113;SDS011;14648;49.730;8.614;2022-08-19T08:56:39;12.73;;;7.27;;
27113;SDS011;14648;49.730;8.614;2022-08-19T08:59:10;8.63;;;7.20;;
27113;SDS011;14648;49.730;8.614;2022-08-19T09:01:44;7.83;;;7.00;;
27113;SDS011;14648;49.730;8.614;2022-08-19T09:04:10;7.90;;;6.10;;
27113;SDS011;14648;49.730;8.614;2022-08-19T09:09:52;5.63;;;5.13;;
27113;SDS011;14648;49.730;8.614;2022-08-19T09:12:34;6.43;;;5.23;;
27113;SDS011;14648;49.730;8.614;2022-08-19T09:15:33;10.70;;;5.30;;
27113;SDS011;14648;49.730;8.614;2022-08-19T09:18:05;6.20;;;4.90;;
27113;SDS011;14648;49.730;8.614;2022-08-19T09:20:31;11.60;;;6.20;;
27113;SDS011;14648;49.730;8.614;2022-08-19T09:22:58;9.60;;;6.20;;
27113;SDS011;14648;49.730;8.614;2022-08-19T09:25:23;9.17;;;6.57;;
27113;SDS011;14648;49.730;8.614;2022-08-19T09:27:50;9.37;;;5.87;;
27113;SDS011;14648;49.730;8.614;2022-08-19T09:30:25;6.90;;;6.20;;
27113;SDS011;14648;49.730;8.614;2022-08-19T09:32:54;6.70;;;5.80;;
27113;SDS011;14648;49.730;8.614;2022-08-19T09:35:21;6.77;;;5.70;;
27113;SDS011;14648;49.730;8.614;2022-08-19T09:37:49;5.90;;;4.87;;
27113;SDS011;14648;49.730;8.614;2022-08-19T09:40:16;7.90;;;5.13;;
27113;SDS011;14648;49.730;8.614;2022-08-19T09:42:43;5.97;;;5.37;;
27113;SDS011;14648;49.730;8.614;2022-08-19T09:45:11;5.70;;;5.20;;
27113;SDS011;14648;49.730;8.614;2022-08-19T09:47:38;6.20;;;5.50;;
27113;SDS011;14648;49.730;8.614;2022-08-19T09:50:05;5.87;;;5.20;;
27113;SDS011;14648;49.730;8.614;2022-08-19T09:52:33;5.80;;;5.20;;
27113;SDS011;14648;49.730;8.614;2022-08-19T09:55:03;6.27;;;5.37;;
27113;SDS011;14648;49.730;8.614;2022-08-19T09:57:33;5.23;;;4.87;;
27113;SDS011;14648;49.730;8.614;2022-08-19T10:00:00;5.30;;;4.90;;
27113;SDS011;14648;49.730;8.614;2022-08-19T10:02:26;4.80;;;4.47;;
27113;SDS011;14648;49.730;8.614;2022-08-19T10:04:52;5.57;;;5.07;;
27113;SDS011;14648;49.730;8.614;2022-08-19T10:07:37;4.90;;;4.50;;
27113;SDS011;14648;49.730;8.614;2022-08-19T10:10:04;6.40;;;5.00;;
27113;SDS011;14648;49.730;8.614;2022-08-19T10:12:31;4.97;;;4.60;;
27113;SDS011;14648;49.730;8.614;2022-08-19T10:14:58;6.45;;;5.28;;
27113;SDS011;14648;49.730;8.614;2022-08-19T10:17:25;5.47;;;4.97;;
27113;SDS011;14648;49.730;8.614;2022-08-19T10:19:51;5.25;;;4.80;;
27113;SDS011;14648;49.730;8.614;2022-08-19T10:22:18;6.05;;;5.00;;
27113;SDS011;14648;49.730;8.614;2022-08-19T10:24:47;5.78;;;5.35;;
27113;SDS011;14648;49.730;8.614;2022-08-19T10:27:12;8.95;;;5.28;;
27113;SDS011;14648;49.730;8.614;2022-08-19T10:29:39;7.35;;;5.32;;
27113;SDS011;14648;49.730;8.614;2022-08-19T10:32:06;6.40;;;5.85;;
27113;SDS011;14648;49.730;8.614;2022-08-19T10:34:35;5.28;;;4.88;;
27113;SDS011;14648;49.730;8.614;2022-08-19T10:37:03;6.28;;;5.63;;
27113;SDS011;14648;49.730;8.614;2022-08-19T10:39:31;5.60;;;5.10;;
27113;SDS011;14648;49.730;8.614;2022-08-19T10:42:03;10.55;;;6.63;;
27113;SDS011;14648;49.730;8.614;2022-08-19T10:44:31;6.28;;;5.68;;
27113;SDS011;14648;49.730;8.614;2022-08-19T10:47:00;6.18;;;5.68;;
27113;SDS011;14648;49.730;8.614;2022-08-19T10:49:26;6.45;;;5.95;;
27113;SDS011;14648;49.730;8.614;2022-08-19T10:51:52;6.32;;;5.57;;
27113;SDS011;14648;49.730;8.614;2022-08-19T10:54:36;7.65;;;6.90;;
27113;SDS011;14648;49.730;8.614;2022-08-19T10:57:21;12.25;;;6.38;;
27113;SDS011;14648;49.730;8.614;2022-08-19T10:59:49;6.70;;;6.20;;
27113;SDS011;14648;49.730;8.614;2022-08-19T11:02:15;7.10;;;6.40;;
27113;SDS011;14648;49.730;8.614;2022-08-19T11:04:40;7.63;;;6.70;;
27113;SDS011;14648;49.730;8.614;2022-08-19T11:07:06;6.22;;;5.72;;
27113;SDS011;14648;49.730;8.614;2022-08-19T11:09:36;14.55;;;7.47;;
27113;SDS011;14648;49.730;8.614;2022-08-19T11:12:05;7.18;;;6.47;;
27113;SDS011;14648;49.730;8.614;2022-08-19T11:14:33;6.30;;;5.78;;
27113;SDS011;14648;49.730;8.614;2022-08-19T11:17:00;6.20;;;5.78;;
27113;SDS011;14648;49.730;8.614;2022-08-19T11:19:28;10.93;;;5.70;;
27113;SDS011;14648;49.730;8.614;2022-08-19T11:21:54;8.88;;;6.65;;
27113;SDS011;14648;49.730;8.614;2022-08-19T11:24:20;6.88;;;6.25;;
27113;SDS011;14648;49.730;8.614;2022-08-19T11:26:50;6.80;;;6.20;;
27113;SDS011;14648;49.730;8.614;2022-08-19T11:29:24;6.68;;;6.18;;
27113;SDS011;14648;49.730;8.614;2022-08-19T11:31:50;7.95;;;7.18;;
27113;SDS011;14648;49.730;8.614;2022-08-19T11:34:18;14.25;;;7.85;;
27113;SDS011;14648;49.730;8.614;2022-08-19T11:36:47;9.10;;;8.30;;
27113;SDS011;14648;49.730;8.614;2022-08-19T11:39:16;7.75;;;6.95;;
27113;SDS011;14648;49.730;8.614;2022-08-19T11:41:45;7.88;;;7.18;;
27113;SDS011;14648;49.730;8.614;2022-08-19T11:44:11;7.05;;;6.53;;
27113;SDS011;14648;49.730;8.614;2022-08-19T11:46:39;8.63;;;7.78;;
27113;SDS011;14648;49.730;8.614;2022-08-19T11:49:12;11.63;;;8.68;;
27113;SDS011;14648;49.730;8.614;2022-08-19T11:51:40;11.90;;;10.60;;
27113;SDS011;14648;49.730;8.614;2022-08-19T11:54:10;10.00;;;9.00;;
27113;SDS011;14648;49.730;8.614;2022-08-19T11:56:39;12.38;;;9.95;;
27113;SDS011;14648;49.730;8.614;2022-08-19T11:59:05;11.80;;;10.60;;
27113;SDS011;14648;49.730;8.614;2022-08-19T12:01:32;11.48;;;9.73;;
27113;SDS011;14648;49.730;8.614;2022-08-19T12:03:58;14.75;;;9.65;;
27113;SDS011;14648;49.730;8.614;2022-08-19T12:06:26;9.30;;;8.60;;
27113;SDS011;14648;49.730;8.614;2022-08-19T12:08:57;9.43;;;8.32;;
27113;SDS011;14648;49.730;8.614;2022-08-19T12:11:25;8.98;;;8.27;;
27113;SDS011;14648;49.730;8.614;2022-08-19T12:13:52;16.23;;;9.25;;
27113;SDS011;14648;49.730;8.614;2022-08-19T12:16:20;10.57;;;9.57;;
27113;SDS011;14648;49.730;8.614;2022-08-19T12:18:50;10.35;;;8.77;;
27113;SDS011;14648;49.730;8.614;2022-08-19T12:21:19;10.63;;;9.60;;
27113;SDS011;14648;49.730;8.614;2022-08-19T12:23:49;9.90;;;9.10;;
27113;SDS011;14648;49.730;8.614;2022-08-19T12:26:16;8.73;;;7.88;;
27113;SDS011;14648;49.730;8.614;2022-08-19T12:28:43;9.25;;;8.35;;
27113;SDS011;14648;49.730;8.614;2022-08-19T12:31:09;13.40;;;9.27;;
27113;SDS011;14648;49.730;8.614;2022-08-19T12:33:37;8.60;;;7.80;;
27113;SDS011;14648;49.730;8.614;2022-08-19T12:36:05;8.48;;;7.55;;
27113;SDS011;14648;49.730;8.614;2022-08-19T12:38:33;9.88;;;7.75;;
27113;SDS011;14648;49.730;8.614;2022-08-19T12:41:02;8.48;;;7.68;;
27113;SDS011;14648;49.730;8.614;2022-08-19T12:43:36;8.85;;;8.15;;
27113;SDS011;14648;49.730;8.614;2022-08-19T12:46:05;7.00;;;6.50;;
27113;SDS011;14648;49.730;8.614;2022-08-19T12:48:32;6.50;;;5.90;;
27113;SDS011;14648;49.730;8.614;2022-08-19T12:50:59;6.88;;;6.25;;
27113;SDS011;14648;49.730;8.614;2022-08-19T12:53:26;7.82;;;7.05;;
27113;SDS011;14648;49.730;8.614;2022-08-19T12:55:57;7.05;;;6.38;;
27113;SDS011;14648;49.730;8.614;2022-08-19T12:58:25;6.47;;;5.60;;
27113;SDS011;14648;49.730;8.614;2022-08-19T13:00:51;6.95;;;5.00;;
27113;SDS011;14648;49.730;8.614;2022-08-19T13:03:17;15.02;;;5.72;;
27113;SDS011;14648;49.730;8.614;2022-08-19T13:05:43;5.15;;;4.80;;
27113;SDS011;14648;49.730;8.614;2022-08-19T13:08:09;5.78;;;4.80;;
27113;SDS011;14648;49.730;8.614;2022-08-19T13:10:36;4.68;;;4.47;;
27113;SDS011;14648;49.730;8.614;2022-08-19T13:13:03;5.10;;;4.68;;
27113;SDS011;14648;49.730;8.614;2022-08-19T13:15:33;5.88;;;5.57;;
27113;SDS011;14648;49.730;8.614;2022-08-19T13:18:05;5.05;;;4.65;;
27113;SDS011;14648;49.730;8.614;2022-08-19T13:20:32;5.38;;;4.25;;
27113;SDS011;14648;49.730;8.614;2022-08-19T13:22:59;4.93;;;4.63;;
27113;SDS011;14648;49.730;8.614;2022-08-19T13:25:24;4.45;;;4.25;;
27113;SDS011;14648;49.730;8.614;2022-08-19T13:27:50;4.18;;;3.97;;
27113;SDS011;14648;49.730;8.614;2022-08-19T13:30:16;4.68;;;4.38;;
27113;SDS011;14648;49.730;8.614;2022-08-19T13:33:03;3.90;;;3.60;;
27113;SDS011;14648;49.730;8.614;2022-08-19T13:35:36;6.05;;;4.25;;
27113;SDS011;14648;49.730;8.614;2022-08-19T13:38:20;4.07;;;3.70;;
27113;SDS011;14648;49.730;8.614;2022-08-19T13:40:48;4.03;;;3.83;;
27113;SDS011;14648;49.730;8.614;2022-08-19T13:43:16;4.00;;;3.72;;
27113;SDS011;14648;49.730;8.614;2022-08-19T13:45:43;4.60;;;4.30;;
27113;SDS011;14648;49.730;8.614;2022-08-19T13:48:09;4.68;;;4.43;;
27113;SDS011;14648;49.730;8.614;2022-08-19T13:50:42;4.93;;;4.63;;
27113;SDS011;14648;49.730;8.614;2022-08-19T13:53:12;4.20;;;3.90;;
27113;SDS011;14648;49.730;8.614;2022-08-19T13:55:42;5.05;;;4.45;;
27113;SDS011;14648;49.730;8.614;2022-08-19T13:58:09;4.55;;;4.15;;
27113;SDS011;14648;49.730;8.614;2022-08-19T14:00:37;4.72;;;4.53;;
27113;SDS011;14648;49.730;8.614;2022-08-19T14:03:06;4.68;;;4.30;;
27113;SDS011;14648;49.730;8.614;2022-08-19T14:05:32;4.22;;;3.92;;
27113;SDS011;14648;49.730;8.614;2022-08-19T14:07:58;5.40;;;5.00;;
27113;SDS011;14648;49.730;8.614;2022-08-19T14:10:24;5.00;;;4.60;;
27113;SDS011;14648;49.730;8.614;2022-08-19T14:12:54;5.50;;;5.00;;
27113;SDS011;14648;49.730;8.614;2022-08-19T14:15:23;5.70;;;5.10;;
27113;SDS011;14648;49.730;8.614;2022-08-19T14:17:49;6.70;;;4.78;;
27113;SDS011;14648;49.730;8.614;2022-08-19T14:20:15;5.75;;;4.38;;
27113;SDS011;14648;49.730;8.614;2022-08-19T14:22:42;5.32;;;4.88;;
27113;SDS011;14648;49.730;8.614;2022-08-19T14:25:10;5.28;;;4.88;;
27113;SDS011;14648;49.730;8.614;2022-08-19T14:27:39;6.13;;;5.63;;
27113;SDS011;14648;49.730;8.614;2022-08-19T14:30:07;4.88;;;4.68;;
27113;SDS011;14648;49.730;8.614;2022-08-19T14:32:36;8.18;;;5.25;;
27113;SDS011;14648;49.730;8.614;2022-08-19T14:35:03;5.82;;;5.43;;
27113;SDS011;14648;49.730;8.614;2022-08-19T14:37:30;5.00;;;4.70;;
27113;SDS011;14648;49.730;8.614;2022-08-19T14:39:56;4.97;;;4.57;;
27113;SDS011;14648;49.730;8.614;2022-08-19T14:42:21;4.82;;;4.40;;
27113;SDS011;14648;49.730;8.614;2022-08-19T14:44:47;4.45;;;4.15;;
27113;SDS011;14648;49.730;8.614;2022-08-19T14:47:13;33.13;;;6.65;;
27113;SDS011;14648;49.730;8.614;2022-08-19T14:49:38;12.88;;;4.97;;